sensor_id;sensor_type;location;lat;lon;timestamp;P1;durP1;ratioP1;P2;durP2;ratioP2
2039;SDS011;1025;42.686;23.350;2022-08-06T00:01:41;3.23;;;3.03;;
2039;SDS011;1025;42.686;23.350;2022-08-06T00:04:07;2.50;;;2.33;;
2039;SDS011;1025;42.686;23.350;2022-08-06T00:06:34;3.33;;;3.10;;
2039;SDS011;1025;42.686;23.350;2022-08-06T00:09:00;4.77;;;3.67;;
2039;SDS011;1025;42.686;23.350;2022-08-06T00:11:28;3.20;;;3.00;;
2039;SDS011;1025;42.686;23.350;2022-08-06T00:13:55;2.97;;;2.80;;
2039;SDS011;1025;42.686;23.350;2022-08-06T00:16:21;3.90;;;3.30;;
2039;SDS011;1025;42.686;23.350;2022-08-06T00:18:48;3.33;;;3.13;;
2039;SDS011;1025;42.686;23.350;2022-08-06T00:21:14;3.40;;;3.20;;
2039;SDS011;1025;42.686;23.350;2022-08-06T00:23:41;4.00;;;3.70;;
2039;SDS011;1025;42.686;23.350;2022-08-06T00:26:07;3.70;;;3.40;;
2039;SDS011;1025;42.686;23.350;2022-08-06T00:28:35;2.87;;;2.53;;
2039;SDS011;1025;42.686;23.350;2022-08-06T00:31:03;3.70;;;3.47;;
2039;SDS011;1025;42.686;23.350;2022-08-06T00:33:30;5.13;;;3.10;;
2039;SDS011;1025;42.686;23.350;2022-08-06T00:35:57;3.70;;;3.40;;
2039;SDS011;1025;42.686;23.350;2022-08-06T00:38:23;3.53;;;3.23;;
2039;SDS011;1025;42.686;23.350;2022-08-06T00:40:50;2.80;;;2.60;;
2039;SDS011;1025;42.686;23.350;2022-08-06T00:43:16;3.60;;;3.37;;
2039;SDS011;1025;42.686;23.350;2022-08-06T00:45:44;3.80;;;3.60;;
2039;SDS011;1025;42.686;23.350;2022-08-06T00:48:11;3.73;;;3.53;;
2039;SDS011;1025;42.686;23.350;2022-08-06T00:50:38;2.93;;;2.83;;
2039;SDS011;1025;42.686;23.350;2022-08-06T00:53:05;4.00;;;3.70;;
2039;SDS011;1025;42.686;23.350;2022-08-06T00:55:31;3.50;;;3.30;;
2039;SDS011;1025;42.686;23.350;2022-08-06T00:57:59;3.60;;;3.30;;
2039;SDS011;1025;42.686;23.350;2022-08-06T01:00:25;7.70;;;4.20;;
2039;SDS011;1025;42.686;23.350;2022-08-06T01:02:53;4.47;;;4.17;;
2039;SDS011;1025;42.686;23.350;2022-08-06T01:05:20;3.90;;;3.60;;
2039;SDS011;1025;42.686;23.350;2022-08-06T01:07:46;3.30;;;3.10;;
2039;SDS011;1025;42.686;23.350;2022-08-06T01:10:13;3.23;;;2.93;;
2039;SDS011;1025;42.686;23.350;2022-08-06T01:12:40;4.07;;;3.77;;
2039;SDS011;1025;42.686;23.350;2022-08-06T01:15:06;3.90;;;3.60;;
2039;SDS011;1025;42.686;23.350;2022-08-06T01:17:34;6.00;;;3.50;;
2039;SDS011;1025;42.686;23.350;2022-08-06T01:20:06;3.53;;;3.23;;
2039;SDS011;1025;42.686;23.350;2022-08-06T01:25:28;5.67;;;3.40;;
2039;SDS011;1025;42.686;23.350;2022-08-06T01:27:59;2.77;;;2.63;;
2039;SDS011;1025;42.686;23.350;2022-08-06T01:30:28;5.60;;;3.30;;
2039;SDS011;1025;42.686;23.350;2022-08-06T01:32:56;3.63;;;3.33;;
2039;SDS011;1025;42.686;23.350;2022-08-06T01:35:27;4.47;;;3.50;;
2039;SDS011;1025;42.686;23.350;2022-08-06T01:37:56;3.97;;;3.67;;
2039;SDS011;1025;42.686;23.350;2022-08-06T01:40:25;2.87;;;2.67;;
2039;SDS011;1025;42.686;23.350;2022-08-06T01:42:53;5.93;;;3.20;;
2039;SDS011;1025;42.686;23.350;2022-08-06T01:45:22;3.77;;;3.50;;
2039;SDS011;1025;42.686;23.350;2022-08-06T01:47:50;4.13;;;3.83;;
2039;SDS011;1025;42.686;23.350;2022-08-06T01:50:19;6.10;;;3.47;;
2039;SDS011;1025;42.686;23.350;2022-08-06T01:52:46;3.10;;;2.90;;
2039;SDS011;1025;42.686;23.350;2022-08-06T01:55:15;2.63;;;2.43;;
2039;SDS011;1025;42.686;23.350;2022-08-06T01:57:43;3.43;;;2.67;;
2039;SDS011;1025;42.686;23.350;2022-08-06T02:00:11;3.67;;;3.33;;
2039;SDS011;1025;42.686;23.350;2022-08-06T02:02:39;2.90;;;2.70;;
2039;SDS011;1025;42.686;23.350;2022-08-06T02:05:07;2.93;;;2.73;;
2039;SDS011;1025;42.686;23.350;2022-08-06T02:07:35;5.47;;;3.33;;
2039;SDS011;1025;42.686;23.350;2022-08-06T02:10:03;2.90;;;2.70;;
2039;SDS011;1025;42.686;23.350;2022-08-06T02:12:30;3.23;;;3.03;;
2039;SDS011;1025;42.686;23.350;2022-08-06T02:14:59;4.17;;;3.87;;
2039;SDS011;1025;42.686;23.350;2022-08-06T02:17:27;4.27;;;3.37;;
2039;SDS011;1025;42.686;23.350;2022-08-06T02:19:55;3.37;;;3.07;;
2039;SDS011;1025;42.686;23.350;2022-08-06T02:22:26;3.50;;;3.20;;
2039;SDS011;1025;42.686;23.350;2022-08-06T02:24:54;4.00;;;3.07;;
2039;SDS011;1025;42.686;23.350;2022-08-06T02:27:22;3.70;;;2.80;;
2039;SDS011;1025;42.686;23.350;2022-08-06T02:29:50;3.40;;;3.10;;
2039;SDS011;1025;42.686;23.350;2022-08-06T02:32:17;3.87;;;3.60;;
2039;SDS011;1025;42.686;23.350;2022-08-06T02:34:44;2.50;;;2.30;;
2039;SDS011;1025;42.686;23.350;2022-08-06T02:37:13;4.00;;;3.70;;
2039;SDS011;1025;42.686;23.350;2022-08-06T02:39:41;4.17;;;3.77;;
2039;SDS011;1025;42.686;23.350;2022-08-06T02:42:12;3.37;;;3.17;;
2039;SDS011;1025;42.686;23.350;2022-08-06T02:44:42;3.57;;;3.27;;
2039;SDS011;1025;42.686;23.350;2022-08-06T02:47:11;3.50;;;3.30;;
2039;SDS011;1025;42.686;23.350;2022-08-06T02:49:40;3.40;;;3.20;;
2039;SDS011;1025;42.686;23.350;2022-08-06T02:52:11;6.57;;;3.33;;
2039;SDS011;1025;42.686;23.350;2022-08-06T02:54:41;2.90;;;2.70;;
2039;SDS011;1025;42.686;23.350;2022-08-06T02:57:16;2.70;;;2.50;;
2039;SDS011;1025;42.686;23.350;2022-08-06T02:59:45;5.67;;;4.47;;
2039;SDS011;1025;42.686;23.350;2022-08-06T03:02:12;5.37;;;3.93;;
2039;SDS011;1025;42.686;23.350;2022-08-06T03:04:40;4.47;;;4.17;;
2039;SDS011;1025;42.686;23.350;2022-08-06T03:07:07;4.40;;;4.10;;
2039;SDS011;1025;42.686;23.350;2022-08-06T03:09:35;3.43;;;3.13;;
2039;SDS011;1025;42.686;23.350;2022-08-06T03:12:03;4.10;;;3.90;;
2039;SDS011;1025;42.686;23.350;2022-08-06T03:14:30;5.30;;;3.80;;
2039;SDS011;1025;42.686;23.350;2022-08-06T03:16:58;3.50;;;3.30;;
2039;SDS011;1025;42.686;23.350;2022-08-06T03:19:26;4.40;;;4.03;;
2039;SDS011;1025;42.686;23.350;2022-08-06T03:21:53;4.47;;;4.07;;
2039;SDS011;1025;42.686;23.350;2022-08-06T03:24:21;3.20;;;2.90;;
2039;SDS011;1025;42.686;23.350;2022-08-06T03:26:48;4.10;;;3.80;;
2039;SDS011;1025;42.686;23.350;2022-08-06T03:29:17;4.10;;;3.80;;
2039;SDS011;1025;42.686;23.350;2022-08-06T03:31:44;2.90;;;2.70;;
2039;SDS011;1025;42.686;23.350;2022-08-06T03:34:10;3.60;;;3.37;;
2039;SDS011;1025;42.686;23.350;2022-08-06T03:36:38;5.97;;;4.70;;
2039;SDS011;1025;42.686;23.350;2022-08-06T03:39:05;3.80;;;3.50;;
2039;SDS011;1025;42.686;23.350;2022-08-06T03:41:34;3.23;;;2.93;;
2039;SDS011;1025;42.686;23.350;2022-08-06T03:44:02;8.13;;;3.90;;
2039;SDS011;1025;42.686;23.350;2022-08-06T03:46:32;3.73;;;3.33;;
2039;SDS011;1025;42.686;23.350;2022-08-06T03:49:01;6.23;;;4.03;;
2039;SDS011;1025;42.686;23.350;2022-08-06T03:51:28;5.03;;;4.63;;
2039;SDS011;1025;42.686;23.350;2022-08-06T03:53:56;3.90;;;3.70;;
2039;SDS011;1025;42.686;23.350;2022-08-06T03:56:24;4.60;;;4.10;;
2039;SDS011;1025;42.686;23.350;2022-08-06T03:58:52;4.40;;;3.70;;
2039;SDS011;1025;42.686;23.350;2022-08-06T04:01:21;3.27;;;3.03;;
2039;SDS011;1025;42.686;23.350;2022-08-06T04:03:50;6.47;;;3.47;;
2039;SDS011;1025;42.686;23.350;2022-08-06T04:06:17;3.60;;;3.30;;
2039;SDS011;1025;42.686;23.350;2022-08-06T04:08:44;4.70;;;4.30;;
2039;SDS011;1025;42.686;23.350;2022-08-06T04:11:11;4.40;;;4.00;;
2039;SDS011;1025;42.686;23.350;2022-08-06T04:13:38;4.87;;;3.57;;
2039;SDS011;1025;42.686;23.350;2022-08-06T04:16:05;4.03;;;3.63;;
2039;SDS011;1025;42.686;23.350;2022-08-06T04:18:33;3.43;;;3.23;;
2039;SDS011;1025;42.686;23.350;2022-08-06T04:21:02;4.23;;;3.93;;
2039;SDS011;1025;42.686;23.350;2022-08-06T04:23:30;4.07;;;3.73;;
2039;SDS011;1025;42.686;23.350;2022-08-06T04:25:57;5.20;;;3.90;;
2039;SDS011;1025;42.686;23.350;2022-08-06T04:31:12;3.73;;;2.40;;
2039;SDS011;1025;42.686;23.350;2022-08-06T04:33:42;3.57;;;3.37;;
2039;SDS011;1025;42.686;23.350;2022-08-06T04:36:11;7.07;;;3.90;;
2039;SDS011;1025;42.686;23.350;2022-08-06T04:38:39;5.77;;;5.37;;
2039;SDS011;1025;42.686;23.350;2022-08-06T04:41:09;4.13;;;3.80;;
2039;SDS011;1025;42.686;23.350;2022-08-06T04:43:37;3.20;;;2.90;;
2039;SDS011;1025;42.686;23.350;2022-08-06T04:46:08;4.60;;;3.27;;
2039;SDS011;1025;42.686;23.350;2022-08-06T04:48:38;3.17;;;2.87;;
2039;SDS011;1025;42.686;23.350;2022-08-06T04:51:05;4.23;;;3.33;;
2039;SDS011;1025;42.686;23.350;2022-08-06T04:53:38;3.33;;;3.13;;
2039;SDS011;1025;42.686;23.350;2022-08-06T04:56:06;2.87;;;2.77;;
2039;SDS011;1025;42.686;23.350;2022-08-06T04:58:38;2.93;;;2.73;;
2039;SDS011;1025;42.686;23.350;2022-08-06T05:01:08;4.40;;;4.10;;
2039;SDS011;1025;42.686;23.350;2022-08-06T05:03:37;4.60;;;3.50;;
2039;SDS011;1025;42.686;23.350;2022-08-06T05:06:05;2.97;;;2.73;;
2039;SDS011;1025;42.686;23.350;2022-08-06T05:08:38;4.53;;;3.50;;
2039;SDS011;1025;42.686;23.350;2022-08-06T05:11:11;3.80;;;3.60;;
2039;SDS011;1025;42.686;23.350;2022-08-06T05:13:39;3.93;;;3.63;;
2039;SDS011;1025;42.686;23.350;2022-08-06T05:16:08;4.20;;;2.97;;
2039;SDS011;1025;42.686;23.350;2022-08-06T05:18:38;3.53;;;3.33;;
2039;SDS011;1025;42.686;23.350;2022-08-06T05:21:08;3.70;;;3.50;;
2039;SDS011;1025;42.686;23.350;2022-08-06T05:23:40;4.20;;;3.90;;
2039;SDS011;1025;42.686;23.350;2022-08-06T05:26:08;3.80;;;3.60;;
2039;SDS011;1025;42.686;23.350;2022-08-06T05:28:38;3.43;;;3.13;;
2039;SDS011;1025;42.686;23.350;2022-08-06T05:31:05;3.70;;;3.50;;
2039;SDS011;1025;42.686;23.350;2022-08-06T05:33:35;4.73;;;4.43;;
2039;SDS011;1025;42.686;23.350;2022-08-06T05:36:04;3.70;;;3.40;;
2039;SDS011;1025;42.686;23.350;2022-08-06T05:41:17;3.87;;;3.00;;
2039;SDS011;1025;42.686;23.350;2022-08-06T05:43:48;4.10;;;3.90;;
2039;SDS011;1025;42.686;23.350;2022-08-06T05:46:21;3.87;;;3.57;;
2039;SDS011;1025;42.686;23.350;2022-08-06T05:48:51;3.27;;;3.07;;
2039;SDS011;1025;42.686;23.350;2022-08-06T05:51:21;3.27;;;3.07;;
2039;SDS011;1025;42.686;23.350;2022-08-06T05:53:52;3.63;;;3.37;;
2039;SDS011;1025;42.686;23.350;2022-08-06T05:56:23;3.60;;;3.40;;
2039;SDS011;1025;42.686;23.350;2022-08-06T05:58:51;4.03;;;3.73;;
2039;SDS011;1025;42.686;23.350;2022-08-06T06:01:19;2.70;;;2.53;;
2039;SDS011;1025;42.686;23.350;2022-08-06T06:03:46;2.53;;;2.43;;
2039;SDS011;1025;42.686;23.350;2022-08-06T06:06:12;3.53;;;3.20;;
2039;SDS011;1025;42.686;23.350;2022-08-06T06:08:39;3.27;;;3.03;;
2039;SDS011;1025;42.686;23.350;2022-08-06T06:11:07;3.40;;;3.20;;
2039;SDS011;1025;42.686;23.350;2022-08-06T06:13:35;3.33;;;3.13;;
2039;SDS011;1025;42.686;23.350;2022-08-06T06:16:05;3.70;;;3.40;;
2039;SDS011;1025;42.686;23.350;2022-08-06T06:18:37;4.10;;;3.80;;
2039;SDS011;1025;42.686;23.350;2022-08-06T06:21:10;4.13;;;3.93;;
2039;SDS011;1025;42.686;23.350;2022-08-06T06:23:40;4.90;;;4.50;;
2039;SDS011;1025;42.686;23.350;2022-08-06T06:26:12;5.80;;;3.43;;
2039;SDS011;1025;42.686;23.350;2022-08-06T06:28:46;3.07;;;2.83;;
2039;SDS011;1025;42.686;23.350;2022-08-06T06:31:19;3.93;;;3.63;;
2039;SDS011;1025;42.686;23.350;2022-08-06T06:33:50;3.87;;;3.60;;
2039;SDS011;1025;42.686;23.350;2022-08-06T06:36:20;3.77;;;3.57;;
2039;SDS011;1025;42.686;23.350;2022-08-06T06:38:51;3.93;;;3.63;;
2039;SDS011;1025;42.686;23.350;2022-08-06T06:41:22;3.93;;;3.63;;
2039;SDS011;1025;42.686;23.350;2022-08-06T06:43:51;4.37;;;3.97;;
2039;SDS011;1025;42.686;23.350;2022-08-06T06:46:21;4.00;;;3.70;;
2039;SDS011;1025;42.686;23.350;2022-08-06T06:48:50;3.53;;;3.30;;
2039;SDS011;1025;42.686;23.350;2022-08-06T06:51:20;2.90;;;2.80;;
2039;SDS011;1025;42.686;23.350;2022-08-06T06:53:47;4.07;;;3.67;;
2039;SDS011;1025;42.686;23.350;2022-08-06T06:56:15;4.03;;;3.70;;
2039;SDS011;1025;42.686;23.350;2022-08-06T06:58:43;6.57;;;5.17;;
2039;SDS011;1025;42.686;23.350;2022-08-06T07:01:13;3.73;;;3.43;;
2039;SDS011;1025;42.686;23.350;2022-08-06T07:03:41;3.83;;;3.47;;
2039;SDS011;1025;42.686;23.350;2022-08-06T07:06:08;4.10;;;3.80;;
2039;SDS011;1025;42.686;23.350;2022-08-06T07:08:37;4.60;;;4.20;;
2039;SDS011;1025;42.686;23.350;2022-08-06T07:11:06;3.00;;;2.80;;
2039;SDS011;1025;42.686;23.350;2022-08-06T07:13:33;4.10;;;3.80;;
2039;SDS011;1025;42.686;23.350;2022-08-06T07:16:01;3.63;;;3.30;;
2039;SDS011;1025;42.686;23.350;2022-08-06T07:18:29;3.77;;;3.50;;
2039;SDS011;1025;42.686;23.350;2022-08-06T07:20:56;5.63;;;4.13;;
2039;SDS011;1025;42.686;23.350;2022-08-06T07:23:24;3.10;;;2.80;;
2039;SDS011;1025;42.686;23.350;2022-08-06T07:25:51;3.40;;;3.20;;
2039;SDS011;1025;42.686;23.350;2022-08-06T07:28:19;3.33;;;3.03;;
2039;SDS011;1025;42.686;23.350;2022-08-06T07:30:48;3.80;;;3.60;;
2039;SDS011;1025;42.686;23.350;2022-08-06T07:33:15;3.33;;;3.03;;
2039;SDS011;1025;42.686;23.350;2022-08-06T07:35:44;3.60;;;3.40;;
2039;SDS011;1025;42.686;23.350;2022-08-06T07:38:14;3.80;;;3.50;;
2039;SDS011;1025;42.686;23.350;2022-08-06T07:40:42;3.53;;;3.33;;
2039;SDS011;1025;42.686;23.350;2022-08-06T07:43:10;3.00;;;2.90;;
2039;SDS011;1025;42.686;23.350;2022-08-06T07:45:38;2.90;;;2.70;;
2039;SDS011;1025;42.686;23.350;2022-08-06T07:48:07;3.60;;;3.40;;
2039;SDS011;1025;42.686;23.350;2022-08-06T07:50:34;2.53;;;2.43;;
2039;SDS011;1025;42.686;23.350;2022-08-06T07:53:03;3.60;;;3.40;;
2039;SDS011;1025;42.686;23.350;2022-08-06T07:55:29;3.40;;;3.20;;
2039;SDS011;1025;42.686;23.350;2022-08-06T07:57:56;3.43;;;3.23;;
2039;SDS011;1025;42.686;23.350;2022-08-06T08:00:24;3.40;;;3.20;;
2039;SDS011;1025;42.686;23.350;2022-08-06T08:02:51;3.63;;;3.43;;
2039;SDS011;1025;42.686;23.350;2022-08-06T08:05:36;3.10;;;2.87;;
2039;SDS011;1025;42.686;23.350;2022-08-06T08:08:22;4.00;;;3.80;;
2039;SDS011;1025;42.686;23.350;2022-08-06T08:10:49;3.70;;;3.10;;
2039;SDS011;1025;42.686;23.350;2022-08-06T08:13:16;3.23;;;3.07;;
2039;SDS011;1025;42.686;23.350;2022-08-06T08:15:44;3.37;;;3.17;;
2039;SDS011;1025;42.686;23.350;2022-08-06T08:18:11;3.73;;;3.53;;
2039;SDS011;1025;42.686;23.350;2022-08-06T08:20:38;3.70;;;3.50;;
2039;SDS011;1025;42.686;23.350;2022-08-06T08:23:05;3.07;;;2.80;;
2039;SDS011;1025;42.686;23.350;2022-08-06T08:25:33;3.13;;;2.77;;
2039;SDS011;1025;42.686;23.350;2022-08-06T08:28:00;4.90;;;3.00;;
2039;SDS011;1025;42.686;23.350;2022-08-06T08:30:27;2.77;;;2.67;;
2039;SDS011;1025;42.686;23.350;2022-08-06T08:32:53;3.17;;;2.50;;
2039;SDS011;1025;42.686;23.350;2022-08-06T08:35:20;2.70;;;2.50;;
2039;SDS011;1025;42.686;23.350;2022-08-06T08:37:46;3.93;;;3.73;;
2039;SDS011;1025;42.686;23.350;2022-08-06T08:40:13;2.80;;;2.60;;
2039;SDS011;1025;42.686;23.350;2022-08-06T08:42:42;2.07;;;1.97;;
2039;SDS011;1025;42.686;23.350;2022-08-06T08:45:09;2.50;;;2.40;;
2039;SDS011;1025;42.686;23.350;2022-08-06T08:47:37;2.03;;;1.77;;
2039;SDS011;1025;42.686;23.350;2022-08-06T08:50:04;2.77;;;2.60;;
2039;SDS011;1025;42.686;23.350;2022-08-06T08:52:32;5.13;;;2.80;;
2039;SDS011;1025;42.686;23.350;2022-08-06T08:55:00;2.33;;;2.23;;
2039;SDS011;1025;42.686;23.350;2022-08-06T08:57:27;3.43;;;3.13;;
2039;SDS011;1025;42.686;23.350;2022-08-06T08:59:55;2.00;;;1.90;;
2039;SDS011;1025;42.686;23.350;2022-08-06T09:02:22;2.43;;;2.23;;
2039;SDS011;1025;42.686;23.350;2022-08-06T09:04:50;2.77;;;2.57;;
2039;SDS011;1025;42.686;23.350;2022-08-06T09:07:17;2.60;;;2.40;;
2039;SDS011;1025;42.686;23.350;2022-08-06T09:09:43;3.00;;;2.00;;
2039;SDS011;1025;42.686;23.350;2022-08-06T09:12:10;2.40;;;2.30;;
2039;SDS011;1025;42.686;23.350;2022-08-06T09:14:37;2.50;;;2.30;;
2039;SDS011;1025;42.686;23.350;2022-08-06T09:17:05;2.23;;;2.13;;
2039;SDS011;1025;42.686;23.350;2022-08-06T09:19:32;1.93;;;1.43;;
2039;SDS011;1025;42.686;23.350;2022-08-06T09:21:59;1.73;;;1.63;;
2039;SDS011;1025;42.686;23.350;2022-08-06T09:24:26;1.77;;;1.67;;
2039;SDS011;1025;42.686;23.350;2022-08-06T09:27:03;2.10;;;2.00;;
2039;SDS011;1025;42.686;23.350;2022-08-06T09:29:30;1.97;;;1.87;;
2039;SDS011;1025;42.686;23.350;2022-08-06T09:31:57;1.80;;;1.70;;
2039;SDS011;1025;42.686;23.350;2022-08-06T09:34:32;2.10;;;2.00;;
2039;SDS011;1025;42.686;23.350;2022-08-06T09:36:58;2.50;;;2.30;;
2039;SDS011;1025;42.686;23.350;2022-08-06T09:39:34;1.93;;;1.70;;
2039;SDS011;1025;42.686;23.350;2022-08-06T09:42:04;7.00;;;1.90;;
2039;SDS011;1025;42.686;23.350;2022-08-06T09:44:31;2.00;;;1.90;;
2039;SDS011;1025;42.686;23.350;2022-08-06T09:46:57;2.10;;;2.00;;
2039;SDS011;1025;42.686;23.350;2022-08-06T09:49:25;1.97;;;1.87;;
2039;SDS011;1025;42.686;23.350;2022-08-06T09:52:02;2.30;;;2.20;;
2039;SDS011;1025;42.686;23.350;2022-08-06T09:54:35;2.30;;;2.20;;
2039;SDS011;1025;42.686;23.350;2022-08-06T09:57:02;1.83;;;1.73;;
2039;SDS011;1025;42.686;23.350;2022-08-06T09:59:29;2.40;;;2.30;;
2039;SDS011;1025;42.686;23.350;2022-08-06T10:02:10;1.70;;;1.60;;
2039;SDS011;1025;42.686;23.350;2022-08-06T10:04:37;2.23;;;2.10;;
2039;SDS011;1025;42.686;23.350;2022-08-06T10:07:05;2.00;;;1.90;;
2039;SDS011;1025;42.686;23.350;2022-08-06T10:09:33;2.30;;;2.13;;
2039;SDS011;1025;42.686;23.350;2022-08-06T10:12:02;2.40;;;2.30;;
2039;SDS011;1025;42.686;23.350;2022-08-06T10:14:42;2.90;;;2.60;;
2039;SDS011;1025;42.686;23.350;2022-08-06T10:17:09;2.43;;;2.30;;
2039;SDS011;1025;42.686;23.350;2022-08-06T10:19:36;2.33;;;2.20;;
2039;SDS011;1025;42.686;23.350;2022-08-06T10:22:03;2.20;;;2.10;;
2039;SDS011;1025;42.686;23.350;2022-08-06T10:24:31;2.47;;;2.27;;
2039;SDS011;1025;42.686;23.350;2022-08-06T10:26:58;2.20;;;2.10;;
2039;SDS011;1025;42.686;23.350;2022-08-06T10:29:25;1.83;;;1.73;;
2039;SDS011;1025;42.686;23.350;2022-08-06T10:31:52;2.07;;;1.97;;
2039;SDS011;1025;42.686;23.350;2022-08-06T10:34:20;1.93;;;1.83;;
2039;SDS011;1025;42.686;23.350;2022-08-06T10:36:52;1.83;;;1.73;;
2039;SDS011;1025;42.686;23.350;2022-08-06T10:41:48;2.27;;;2.17;;
2039;SDS011;1025;42.686;23.350;2022-08-06T10:44:14;2.10;;;2.00;;
2039;SDS011;1025;42.686;23.350;2022-08-06T10:46:41;3.30;;;3.10;;
2039;SDS011;1025;42.686;23.350;2022-08-06T10:49:08;1.87;;;1.77;;
2039;SDS011;1025;42.686;23.350;2022-08-06T10:51:36;2.00;;;1.90;;
2039;SDS011;1025;42.686;23.350;2022-08-06T10:54:02;2.00;;;1.90;;
2039;SDS011;1025;42.686;23.350;2022-08-06T10:56:29;2.07;;;1.97;;
2039;SDS011;1025;42.686;23.350;2022-08-06T10:58:58;1.90;;;1.80;;
2039;SDS011;1025;42.686;23.350;2022-08-06T11:01:27;1.73;;;1.63;;
2039;SDS011;1025;42.686;23.350;2022-08-06T11:04:20;1.93;;;1.83;;
2039;SDS011;1025;42.686;23.350;2022-08-06T11:09:37;2.00;;;1.90;;
2039;SDS011;1025;42.686;23.350;2022-08-06T11:12:14;5.97;;;2.13;;
2039;SDS011;1025;42.686;23.350;2022-08-06T11:14:45;2.40;;;2.30;;
2039;SDS011;1025;42.686;23.350;2022-08-06T11:17:12;3.13;;;2.60;;
2039;SDS011;1025;42.686;23.350;2022-08-06T11:19:40;2.00;;;1.90;;
2039;SDS011;1025;42.686;23.350;2022-08-06T11:22:07;1.53;;;1.43;;
2039;SDS011;1025;42.686;23.350;2022-08-06T11:24:33;9.40;;;2.40;;
2039;SDS011;1025;42.686;23.350;2022-08-06T11:30:10;2.20;;;2.10;;
2039;SDS011;1025;42.686;23.350;2022-08-06T11:32:42;2.43;;;2.33;;
2039;SDS011;1025;42.686;23.350;2022-08-06T11:37:53;2.33;;;2.23;;
2039;SDS011;1025;42.686;23.350;2022-08-06T11:40:20;1.90;;;1.80;;
2039;SDS011;1025;42.686;23.350;2022-08-06T11:42:46;2.40;;;2.30;;
2039;SDS011;1025;42.686;23.350;2022-08-06T11:45:14;2.20;;;2.10;;
2039;SDS011;1025;42.686;23.350;2022-08-06T11:50:22;2.17;;;2.07;;
2039;SDS011;1025;42.686;23.350;2022-08-06T11:52:49;4.87;;;2.60;;
2039;SDS011;1025;42.686;23.350;2022-08-06T11:55:16;2.67;;;2.57;;
2039;SDS011;1025;42.686;23.350;2022-08-06T11:57:42;2.50;;;2.40;;
2039;SDS011;1025;42.686;23.350;2022-08-06T12:00:10;2.37;;;2.27;;
2039;SDS011;1025;42.686;23.350;2022-08-06T12:08:19;2.63;;;2.53;;
2039;SDS011;1025;42.686;23.350;2022-08-06T12:13:36;2.23;;;2.13;;
2039;SDS011;1025;42.686;23.350;2022-08-06T12:16:04;2.20;;;2.10;;
2039;SDS011;1025;42.686;23.350;2022-08-06T12:18:50;1.80;;;1.70;;
2039;SDS011;1025;42.686;23.350;2022-08-06T12:21:17;3.40;;;3.10;;
2039;SDS011;1025;42.686;23.350;2022-08-06T12:23:45;2.63;;;2.50;;
2039;SDS011;1025;42.686;23.350;2022-08-06T12:26:15;2.30;;;2.20;;
2039;SDS011;1025;42.686;23.350;2022-08-06T12:28:42;2.43;;;2.23;;
2039;SDS011;1025;42.686;23.350;2022-08-06T12:31:08;2.97;;;2.77;;
2039;SDS011;1025;42.686;23.350;2022-08-06T12:33:40;1.70;;;1.60;;
2039;SDS011;1025;42.686;23.350;2022-08-06T12:36:07;2.20;;;2.10;;
2039;SDS011;1025;42.686;23.350;2022-08-06T12:38:34;4.30;;;1.93;;
2039;SDS011;1025;42.686;23.350;2022-08-06T12:41:04;1.73;;;1.63;;
2039;SDS011;1025;42.686;23.350;2022-08-06T12:43:31;2.07;;;1.93;;
2039;SDS011;1025;42.686;23.350;2022-08-06T12:45:58;2.40;;;2.30;;
2039;SDS011;1025;42.686;23.350;2022-08-06T12:48:25;2.70;;;2.50;;
2039;SDS011;1025;42.686;23.350;2022-08-06T12:51:00;2.33;;;2.23;;
2039;SDS011;1025;42.686;23.350;2022-08-06T12:53:27;2.37;;;2.17;;
2039;SDS011;1025;42.686;23.350;2022-08-06T12:55:54;2.20;;;2.10;;
2039;SDS011;1025;42.686;23.350;2022-08-06T12:58:22;2.20;;;2.10;;
2039;SDS011;1025;42.686;23.350;2022-08-06T13:00:50;1.73;;;1.63;;
2039;SDS011;1025;42.686;23.350;2022-08-06T13:03:18;2.03;;;1.93;;
2039;SDS011;1025;42.686;23.350;2022-08-06T13:05:46;1.97;;;1.87;;
2039;SDS011;1025;42.686;23.350;2022-08-06T13:08:13;2.00;;;1.90;;
2039;SDS011;1025;42.686;23.350;2022-08-06T13:10:40;3.47;;;2.17;;
2039;SDS011;1025;42.686;23.350;2022-08-06T13:13:13;2.23;;;2.13;;
2039;SDS011;1025;42.686;23.350;2022-08-06T13:15:41;1.90;;;1.80;;
2039;SDS011;1025;42.686;23.350;2022-08-06T13:18:09;2.47;;;2.30;;
2039;SDS011;1025;42.686;23.350;2022-08-06T13:20:37;3.10;;;2.43;;
2039;SDS011;1025;42.686;23.350;2022-08-06T13:23:04;2.10;;;2.00;;
2039;SDS011;1025;42.686;23.350;2022-08-06T13:25:39;2.40;;;2.30;;
2039;SDS011;1025;42.686;23.350;2022-08-06T13:28:08;1.90;;;1.80;;
2039;SDS011;1025;42.686;23.350;2022-08-06T13:30:35;2.23;;;2.03;;
2039;SDS011;1025;42.686;23.350;2022-08-06T13:35:48;2.37;;;2.17;;
2039;SDS011;1025;42.686;23.350;2022-08-06T13:38:25;2.80;;;2.70;;
2039;SDS011;1025;42.686;23.350;2022-08-06T13:40:52;2.27;;;2.17;;
2039;SDS011;1025;42.686;23.350;2022-08-06T13:43:19;2.40;;;2.30;;
2039;SDS011;1025;42.686;23.350;2022-08-06T13:45:45;4.30;;;2.00;;
2039;SDS011;1025;42.686;23.350;2022-08-06T13:48:12;2.87;;;2.77;;
2039;SDS011;1025;42.686;23.350;2022-08-06T13:50:41;2.03;;;1.93;;
2039;SDS011;1025;42.686;23.350;2022-08-06T13:53:09;1.83;;;1.73;;
2039;SDS011;1025;42.686;23.350;2022-08-06T13:55:37;2.23;;;2.13;;
2039;SDS011;1025;42.686;23.350;2022-08-06T13:58:04;2.83;;;2.43;;
2039;SDS011;1025;42.686;23.350;2022-08-06T14:00:30;1.90;;;1.80;;
2039;SDS011;1025;42.686;23.350;2022-08-06T14:02:57;2.10;;;2.00;;
2039;SDS011;1025;42.686;23.350;2022-08-06T14:05:24;2.50;;;2.40;;
2039;SDS011;1025;42.686;23.350;2022-08-06T14:07:50;2.43;;;2.33;;
2039;SDS011;1025;42.686;23.350;2022-08-06T14:10:18;2.40;;;2.30;;
2039;SDS011;1025;42.686;23.350;2022-08-06T14:12:45;4.10;;;2.30;;
2039;SDS011;1025;42.686;23.350;2022-08-06T14:15:33;2.40;;;2.30;;
2039;SDS011;1025;42.686;23.350;2022-08-06T14:18:00;2.50;;;2.30;;
2039;SDS011;1025;42.686;23.350;2022-08-06T14:20:27;3.47;;;3.27;;
2039;SDS011;1025;42.686;23.350;2022-08-06T14:22:54;2.90;;;2.70;;
2039;SDS011;1025;42.686;23.350;2022-08-06T14:25:22;2.57;;;2.47;;
2039;SDS011;1025;42.686;23.350;2022-08-06T14:27:49;2.40;;;2.30;;
2039;SDS011;1025;42.686;23.350;2022-08-06T14:30:16;2.63;;;2.43;;
2039;SDS011;1025;42.686;23.350;2022-08-06T14:32:43;2.80;;;2.60;;
2039;SDS011;1025;42.686;23.350;2022-08-06T14:35:10;1.97;;;1.87;;
2039;SDS011;1025;42.686;23.350;2022-08-06T14:37:38;2.60;;;2.40;;
2039;SDS011;1025;42.686;23.350;2022-08-06T14:40:08;2.57;;;2.37;;
2039;SDS011;1025;42.686;23.350;2022-08-06T14:42:36;2.67;;;2.57;;
2039;SDS011;1025;42.686;23.350;2022-08-06T14:45:20;2.47;;;2.37;;
2039;SDS011;1025;42.686;23.350;2022-08-06T14:47:47;2.27;;;2.17;;
2039;SDS011;1025;42.686;23.350;2022-08-06T14:50:13;2.73;;;2.57;;
2039;SDS011;1025;42.686;23.350;2022-08-06T14:52:40;2.57;;;2.37;;
2039;SDS011;1025;42.686;23.350;2022-08-06T14:55:07;2.03;;;1.93;;
2039;SDS011;1025;42.686;23.350;2022-08-06T14:57:36;3.00;;;2.80;;
2039;SDS011;1025;42.686;23.350;2022-08-06T15:00:05;2.03;;;1.93;;
2039;SDS011;1025;42.686;23.350;2022-08-06T15:02:31;2.93;;;2.73;;
2039;SDS011;1025;42.686;23.350;2022-08-06T15:04:58;2.00;;;1.90;;
2039;SDS011;1025;42.686;23.350;2022-08-06T15:07:25;3.63;;;2.47;;
2039;SDS011;1025;42.686;23.350;2022-08-06T15:09:51;3.20;;;3.00;;
2039;SDS011;1025;42.686;23.350;2022-08-06T15:12:18;2.30;;;2.20;;
2039;SDS011;1025;42.686;23.350;2022-08-06T15:14:46;2.63;;;2.43;;
2039;SDS011;1025;42.686;23.350;2022-08-06T15:17:14;4.03;;;3.00;;
2039;SDS011;1025;42.686;23.350;2022-08-06T15:19:41;2.50;;;2.30;;
2039;SDS011;1025;42.686;23.350;2022-08-06T15:22:08;3.10;;;2.90;;
2039;SDS011;1025;42.686;23.350;2022-08-06T15:24:34;3.27;;;2.83;;
2039;SDS011;1025;42.686;23.350;2022-08-06T15:27:01;2.63;;;2.50;;
2039;SDS011;1025;42.686;23.350;2022-08-06T15:29:30;3.10;;;2.67;;
2039;SDS011;1025;42.686;23.350;2022-08-06T15:31:58;3.20;;;3.00;;
2039;SDS011;1025;42.686;23.350;2022-08-06T15:34:24;2.00;;;1.90;;
2039;SDS011;1025;42.686;23.350;2022-08-06T15:36:51;2.20;;;2.10;;
2039;SDS011;1025;42.686;23.350;2022-08-06T15:39:17;3.33;;;2.67;;
2039;SDS011;1025;42.686;23.350;2022-08-06T15:41:44;2.80;;;2.70;;